Wenonah, NJ

7:21 AM EDT on March 29, 2015 (GMT -0400)
South Jersey Regional | | Change Station
CLOSE
Current Station
Airport
Location: Mount Holly,
Elevation: 52 ft
Nearby Weather Stations

Elev 52 ft 39.94 °N, 74.84 °W | Updated 27 minutes ago

Partly Cloudy
Partly Cloudy
25 °F
Feels Like 16 °F
N
8
Wind Variable Wind from NW

Today
High -- | Low -- °F
--% Chance of Precip.
Yesterday
High -- | Low -- °F
Precip. -- in
6:49 AM 7:21 PM
Waxing Gibbous, 70% visible
Pressure 30.27 in
Visibility 10.0 miles
Clouds Few 7500 ft
Few 10000 ft
Windchill 16 °F
Dew Point 8 °F
Humidity 49%
Rainfall 0.00 in
Snow Depth Not available.
UV 0 out of 12
Pollen 8.40 out of 12
Air Quality Not available.
Flu Activity Not available.
METAR KVAY 291054Z AUTO 32007KT 10SM FEW075 FEW100 M04/M13 A3026 RMK AO2 SLP248 T10391133

More Conditions Fewer Conditions

Pressure 30.27 in
Visibility 10.0 miles
Clouds Few 7500 ft
Few 10000 ft
Windchill 16 °F
Dew Point 8 °F
Humidity 49%
Rainfall 0.00 in
Snow Depth Not available.
UV 0 out of 12
Pollen 8.40 out of 12
Air Quality Not available.
Flu Activity Not available.
METAR KVAY 291054Z AUTO 32007KT 10SM FEW075 FEW100 M04/M13 A3026 RMK AO2 SLP248 T10391133

More Conditions Fewer Conditions

10-Day Weather Forecast

Almanac

Astronomy

Mar. 29, 2015 Rise Set
Actual Time
Civil Twilight
Nautical Twilight
Astronomical Twilight
Moon
Length of Visible Light
Length of Day
Tomorrow will be .
, % of the Moon is Illuminated

Today's Extremes

State Highs State Lows

Community

WunderPhotos

Upload Photos

1,809,214 photos uploaded!

WunderBlogs® & News

Nearby

Air Quality

  Air Quality AQ Index Pollutant
Not available.

Snow Depth

Station Depth Elevation

Earthquake Activity

City Distance Mag. Time & Date
Minimum magnitude displayed is 2.5.

Coastal Water Temperatures

Place Temperature

Stations

Nearby Weather Stations

Station Location Temp. Windchill Dew Point Humidity Wind Precip. Elev Updated Type